createdAt,value
2019-02-24T00:00:51.691Z,85.60
2019-02-24T00:03:21.112Z,85.40
2019-02-24T00:05:50.602Z,85.90
2019-02-24T00:08:19.827Z,86.20
2019-02-24T00:10:48.971Z,86.40
2019-02-24T00:13:18.204Z,86.20
2019-02-24T00:15:47.526Z,86.90
2019-02-24T00:18:17.203Z,86.70
2019-02-24T00:20:46.380Z,86.60
2019-02-24T00:23:15.486Z,86.70
2019-02-24T00:25:45.211Z,86.80
2019-02-24T00:28:14.395Z,87.00
2019-02-24T00:30:43.614Z,87.00
2019-02-24T00:33:13.427Z,87.60
2019-02-24T00:35:42.576Z,87.40
2019-02-24T00:38:12.107Z,87.70
2019-02-24T00:40:41.239Z,87.70
2019-02-24T00:43:10.467Z,88.10
2019-02-24T00:45:39.619Z,88.20
2019-02-24T00:48:09.199Z,88.70
2019-02-24T00:50:38.397Z,88.30
2019-02-24T00:53:07.543Z,88.30
2019-02-24T00:55:36.775Z,88.20
2019-02-24T00:58:05.968Z,88.00
2019-02-24T01:00:35.406Z,88.00
2019-02-24T01:03:04.594Z,88.40
2019-02-24T01:05:33.740Z,88.20
2019-02-24T01:08:03.083Z,88.20
2019-02-24T01:10:32.589Z,87.50
2019-02-24T01:13:01.724Z,87.80
2019-02-24T01:15:31.072Z,87.50
2019-02-24T01:18:03.179Z,86.60
2019-02-24T01:20:32.772Z,87.10
2019-02-24T01:23:04.051Z,86.50
2019-02-24T01:25:33.963Z,86.40
2019-02-24T01:28:04.617Z,86.40
2019-02-24T01:30:34.253Z,86.70
2019-02-24T01:33:03.394Z,85.80
2019-02-24T01:35:36.830Z,85.80
2019-02-24T01:38:08.207Z,85.70
2019-02-24T01:40:37.972Z,85.50
2019-02-24T01:43:11.438Z,84.00
2019-02-24T01:45:40.823Z,84.20
2019-02-24T01:48:10.080Z,85.20
2019-02-24T01:50:45.486Z,85.40
2019-02-24T01:53:17.307Z,85.60
2019-02-24T01:55:46.737Z,85.60
2019-02-24T01:58:17.194Z,86.50
2019-02-24T02:00:46.973Z,86.20
2019-02-24T02:03:17.976Z,86.40
2019-02-24T02:05:47.539Z,87.30
2019-02-24T02:08:17.240Z,87.80
2019-02-24T02:10:48.017Z,86.80
2019-02-24T02:13:17.787Z,86.00
2019-02-24T02:15:47.365Z,85.70
2019-02-24T02:18:18.651Z,86.30
2019-02-24T02:20:47.783Z,87.00
2019-02-24T02:23:16.923Z,87.60
2019-02-24T02:25:46.170Z,88.00
2019-02-24T02:28:15.349Z,88.60
2019-02-24T02:30:44.539Z,88.70
2019-02-24T02:33:13.743Z,88.90
2019-02-24T02:35:43.009Z,88.90
2019-02-24T02:38:12.165Z,88.90
2019-02-24T02:40:41.383Z,88.90
2019-02-24T02:43:11.400Z,88.80
2019-02-24T02:45:40.603Z,88.80
2019-02-24T02:48:10.412Z,88.90
2019-02-24T02:50:39.623Z,88.60
2019-02-24T02:53:08.823Z,88.60
2019-02-24T02:55:37.946Z,88.10
2019-02-24T02:58:07.427Z,87.60
2019-02-24T03:00:36.648Z,86.20
2019-02-24T03:03:05.891Z,85.20
2019-02-24T03:05:35.071Z,84.90
2019-02-24T03:08:14.584Z,85.20
2019-02-24T03:10:44.019Z,85.70
2019-02-24T03:13:13.612Z,86.50
2019-02-24T03:15:42.846Z,86.70
2019-02-24T03:18:12.695Z,86.40
2019-02-24T03:20:41.854Z,85.90
2019-02-24T03:23:10.963Z,84.70
2019-02-24T03:25:40.185Z,84.70
2019-02-24T03:28:09.683Z,84.70
2019-02-24T03:30:39.164Z,84.80
2019-02-24T03:33:08.396Z,84.60
2019-02-24T03:35:37.908Z,84.70
2019-02-24T03:38:07.108Z,85.10
2019-02-24T03:40:36.331Z,85.00
2019-02-24T03:43:05.603Z,85.10
2019-02-24T03:45:34.773Z,85.20
2019-02-24T03:48:03.999Z,84.80
2019-02-24T03:50:33.256Z,83.60
2019-02-24T03:53:02.735Z,83.70
2019-02-24T03:55:31.854Z,83.30
2019-02-24T03:58:01.527Z,82.40
2019-02-24T04:00:31.169Z,81.60
2019-02-24T04:03:00.593Z,80.50
2019-02-24T04:05:29.989Z,80.40
2019-02-24T04:07:59.133Z,78.50
2019-02-24T04:10:28.661Z,78.70
2019-02-24T04:12:57.860Z,80.80
2019-02-24T04:15:27.010Z,82.00
2019-02-24T04:17:56.586Z,82.40
2019-02-24T04:20:25.778Z,82.20
2019-02-24T04:22:55.031Z,81.40
2019-02-24T04:25:24.146Z,80.80
2019-02-24T04:27:53.899Z,80.40
2019-02-24T04:30:24.260Z,81.00
2019-02-24T04:32:53.769Z,81.30
2019-02-24T04:35:23.279Z,82.60
2019-02-24T04:37:52.665Z,81.80
2019-02-24T04:40:22.094Z,80.60
2019-02-24T04:42:51.358Z,80.50
2019-02-24T04:45:20.882Z,81.40
2019-02-24T04:47:50.334Z,82.20
2019-02-24T04:50:19.618Z,82.10
2019-02-24T04:52:48.803Z,82.40
2019-02-24T04:55:17.975Z,83.00
2019-02-24T04:57:47.207Z,82.70
2019-02-24T05:00:16.705Z,80.40
2019-02-24T05:02:45.847Z,80.00
2019-02-24T05:05:14.979Z,80.40
2019-02-24T05:07:44.115Z,80.60
2019-02-24T05:10:13.490Z,80.30
2019-02-24T05:12:42.573Z,80.00
2019-02-24T05:15:11.786Z,79.00
2019-02-24T05:17:40.925Z,77.70
2019-02-24T05:20:10.965Z,78.20
2019-02-24T05:22:40.183Z,78.80
2019-02-24T05:25:09.823Z,79.40
2019-02-24T05:27:39.004Z,79.70
2019-02-24T05:30:08.155Z,79.90
2019-02-24T05:32:37.300Z,80.00
2019-02-24T05:35:06.802Z,79.60
2019-02-24T05:37:36.346Z,79.50
2019-02-24T05:40:06.058Z,79.90
2019-02-24T05:42:36.062Z,80.00
2019-02-24T05:45:05.535Z,79.90
2019-02-24T05:47:34.703Z,79.70
2019-02-24T05:50:03.879Z,78.80
2019-02-24T05:52:33.129Z,78.90
2019-02-24T05:55:02.441Z,78.90
2019-02-24T05:57:32.218Z,79.60
2019-02-24T06:00:02.866Z,80.50
2019-02-24T06:02:32.381Z,80.90
2019-02-24T06:05:04.455Z,80.30
2019-02-24T06:07:33.606Z,81.00
2019-02-24T06:10:03.074Z,81.50
2019-02-24T06:12:32.647Z,82.30
2019-02-24T06:15:02.658Z,81.90
2019-02-24T06:17:31.851Z,82.10
2019-02-24T06:20:01.454Z,81.90
2019-02-24T06:22:30.867Z,80.60
2019-02-24T06:25:00.417Z,78.90
2019-02-24T06:27:30.271Z,78.60
2019-02-24T06:30:04.832Z,77.70
2019-02-24T06:32:30.924Z,78.60
2019-02-24T06:35:00.225Z,78.70
2019-02-24T06:37:29.736Z,79.80
2019-02-24T06:39:59.035Z,78.90
2019-02-24T06:42:28.447Z,79.10
2019-02-24T06:44:57.835Z,79.20
2019-02-24T06:47:27.229Z,79.70
2019-02-24T06:49:56.448Z,80.80
2019-02-24T06:52:28.028Z,81.30
2019-02-24T06:54:56.918Z,81.40
2019-02-24T06:57:26.768Z,82.20
2019-02-24T06:59:55.951Z,81.70
2019-02-24T07:02:25.212Z,82.00
2019-02-24T07:04:54.457Z,81.90
2019-02-24T07:07:24.118Z,81.80
2019-02-24T07:09:53.523Z,81.20
2019-02-24T07:12:22.985Z,80.50
2019-02-24T07:14:52.688Z,80.80
2019-02-24T07:17:22.156Z,81.00
2019-02-24T07:19:51.364Z,81.50
2019-02-24T07:22:21.361Z,82.10
2019-02-24T07:24:50.749Z,81.60
2019-02-24T07:27:20.429Z,81.30
2019-02-24T07:29:50.043Z,81.20
2019-02-24T07:32:19.170Z,79.70
2019-02-24T07:34:48.317Z,76.90
2019-02-24T07:37:17.479Z,77.40
2019-02-24T07:39:47.608Z,76.70
2019-02-24T07:42:16.709Z,76.00
2019-02-24T07:44:45.867Z,74.90
2019-02-24T07:47:15.193Z,74.20
2019-02-24T07:49:44.457Z,75.00
2019-02-24T07:52:13.738Z,74.10
2019-02-24T07:54:43.408Z,73.90
2019-02-24T07:57:12.639Z,73.20
2019-02-24T07:59:41.842Z,73.50
2019-02-24T08:02:11.658Z,73.60
2019-02-24T08:04:40.976Z,75.60
2019-02-24T08:07:10.124Z,78.20
2019-02-24T08:09:39.628Z,79.60
2019-02-24T08:12:08.823Z,79.40
2019-02-24T08:14:38.407Z,78.80
2019-02-24T08:17:07.931Z,73.20
2019-02-24T08:19:37.325Z,70.80
2019-02-24T08:22:06.635Z,71.10
2019-02-24T08:24:35.999Z,71.30
2019-02-24T08:27:06.256Z,72.40
2019-02-24T08:29:35.407Z,73.10
2019-02-24T08:32:05.218Z,71.80
2019-02-24T08:34:34.965Z,70.80
2019-02-24T08:37:04.566Z,70.60
2019-02-24T08:39:33.689Z,71.00
2019-02-24T08:42:02.917Z,71.20
2019-02-24T08:44:32.262Z,70.30
2019-02-24T08:47:01.861Z,67.50
2019-02-24T08:49:31.557Z,66.70
2019-02-24T08:52:00.759Z,67.30
2019-02-24T08:54:29.975Z,67.50
2019-02-24T08:56:59.170Z,64.70
2019-02-24T08:59:28.618Z,65.30
2019-02-24T09:01:58.139Z,65.60
2019-02-24T09:04:28.104Z,66.20
2019-02-24T09:06:57.335Z,65.40
2019-02-24T09:09:26.823Z,64.20
2019-02-24T09:11:55.972Z,63.70
2019-02-24T09:14:26.069Z,63.90
2019-02-24T09:16:55.251Z,64.60
2019-02-24T09:19:25.625Z,64.60
2019-02-24T09:21:55.340Z,64.50
2019-02-24T09:24:24.664Z,64.20
2019-02-24T09:26:53.862Z,64.40
2019-02-24T09:29:23.125Z,65.90
2019-02-24T09:31:52.349Z,65.70
2019-02-24T09:34:21.870Z,66.60
2019-02-24T09:36:51.080Z,67.20
2019-02-24T09:39:20.326Z,66.90
2019-02-24T09:41:49.863Z,66.10
2019-02-24T09:44:19.805Z,64.00
2019-02-24T09:46:48.990Z,62.50
2019-02-24T09:49:18.121Z,62.50
2019-02-24T09:51:47.683Z,56.80
2019-02-24T09:54:17.181Z,57.50
2019-02-24T09:56:47.088Z,58.30
2019-02-24T09:59:16.234Z,58.40
2019-02-24T10:01:45.500Z,59.20
2019-02-24T10:04:14.726Z,59.50
2019-02-24T10:06:44.305Z,60.60
2019-02-24T10:09:13.485Z,61.30
2019-02-24T10:11:42.959Z,60.60
2019-02-24T10:14:12.106Z,60.40
2019-02-24T10:16:41.332Z,56.70
2019-02-24T10:19:10.836Z,55.20
2019-02-24T10:21:40.066Z,54.70
2019-02-24T10:24:09.305Z,55.30
2019-02-24T10:26:38.525Z,54.30
2019-02-24T10:29:07.774Z,53.30
2019-02-24T10:31:37.309Z,53.70
2019-02-24T10:34:07.705Z,50.80
2019-02-24T10:36:37.038Z,51.40
2019-02-24T10:39:06.548Z,52.90
2019-02-24T10:41:37.427Z,52.90
2019-02-24T10:44:06.983Z,52.10
2019-02-24T10:46:36.216Z,50.90
2019-02-24T10:49:06.196Z,50.90
2019-02-24T10:51:35.397Z,48.70
2019-02-24T10:54:04.541Z,50.80
2019-02-24T10:56:33.723Z,50.60
2019-02-24T10:59:03.588Z,51.20
2019-02-24T11:01:32.800Z,50.60
2019-02-24T11:04:01.994Z,48.00
2019-02-24T11:06:31.179Z,47.30
2019-02-24T11:09:00.430Z,46.80
2019-02-24T11:11:30.056Z,47.30
2019-02-24T11:13:59.678Z,46.70
2019-02-24T11:16:28.919Z,46.10
2019-02-24T11:18:58.059Z,46.60
2019-02-24T11:21:30.344Z,45.10
2019-02-24T11:23:59.834Z,43.20
2019-02-24T11:26:29.463Z,43.10
2019-02-24T11:28:59.344Z,42.70
2019-02-24T11:31:28.827Z,43.30
2019-02-24T11:33:58.313Z,37.30
2019-02-24T11:36:27.836Z,32.20
2019-02-24T11:38:57.366Z,28.80
2019-02-24T11:41:26.988Z,26.00
2019-02-24T11:44:02.841Z,25.10
2019-02-24T11:46:32.540Z,22.40
2019-02-24T11:49:01.925Z,24.30
2019-02-24T11:51:31.161Z,22.20
2019-02-24T11:54:00.951Z,22.30
2019-02-24T11:56:30.610Z,22.20
2019-02-24T11:59:00.055Z,21.00
2019-02-24T12:01:29.670Z,21.60
2019-02-24T12:03:59.302Z,21.20
2019-02-24T12:06:29.187Z,20.50
2019-02-24T12:09:05.073Z,20.70
2019-02-24T12:11:30.087Z,19.50
2019-02-24T12:13:59.448Z,18.90
2019-02-24T12:16:29.195Z,20.10
2019-02-24T12:18:59.442Z,21.00
2019-02-24T12:21:29.148Z,19.60
2019-02-24T12:23:58.563Z,17.50
2019-02-24T12:26:28.948Z,17.70
2019-02-24T12:28:58.570Z,18.50
2019-02-24T12:31:27.822Z,16.30
2019-02-24T12:33:57.776Z,16.40
2019-02-24T12:36:27.012Z,15.50
2019-02-24T12:38:56.287Z,15.50
2019-02-24T12:41:25.509Z,15.00
2019-02-24T12:43:54.664Z,15.90
2019-02-24T12:46:23.943Z,14.70
2019-02-24T12:48:53.522Z,15.60
2019-02-24T12:51:23.466Z,14.70
2019-02-24T12:53:52.771Z,14.80
2019-02-24T12:56:22.036Z,15.70
2019-02-24T12:58:51.287Z,15.90
2019-02-24T13:01:20.591Z,16.40
2019-02-24T13:03:50.181Z,15.20
2019-02-24T13:06:19.698Z,16.40
2019-02-24T13:08:48.972Z,15.00
2019-02-24T13:11:18.212Z,16.10
2019-02-24T13:13:47.706Z,16.80
2019-02-24T13:16:17.074Z,16.40
2019-02-24T13:18:46.867Z,17.50
2019-02-24T13:21:16.368Z,16.00
2019-02-24T13:23:45.774Z,16.30
2019-02-24T13:26:15.041Z,16.80
2019-02-24T13:28:50.466Z,17.20
2019-02-24T13:31:15.108Z,18.50
2019-02-24T13:33:44.287Z,18.20
2019-02-24T13:36:13.519Z,19.60
2019-02-24T13:38:42.968Z,19.80
2019-02-24T13:41:12.148Z,21.20
2019-02-24T13:43:41.266Z,21.70
2019-02-24T13:46:10.510Z,22.10
2019-02-24T13:48:40.016Z,24.20
2019-02-24T13:51:09.608Z,23.60
2019-02-24T13:53:39.393Z,23.50
2019-02-24T13:56:08.941Z,23.80
2019-02-24T13:58:38.058Z,23.00
2019-02-24T14:01:07.449Z,23.60
2019-02-24T14:03:36.760Z,23.20
2019-02-24T14:06:05.915Z,25.40
2019-02-24T14:08:35.631Z,24.70
2019-02-24T14:11:04.871Z,24.40
2019-02-24T14:13:34.067Z,24.80
2019-02-24T14:16:03.231Z,26.30
2019-02-24T14:18:32.479Z,27.40
2019-02-24T14:21:01.918Z,24.50
2019-02-24T14:23:32.012Z,22.80
2019-02-24T14:26:01.456Z,22.20
2019-02-24T14:28:30.620Z,22.20
2019-02-24T14:31:00.043Z,21.80
2019-02-24T14:33:29.375Z,24.00
2019-02-24T14:35:58.501Z,24.20
2019-02-24T14:38:27.742Z,24.20
2019-02-24T14:40:56.930Z,24.80
2019-02-24T14:43:26.158Z,25.00
2019-02-24T14:45:55.413Z,23.30
2019-02-24T14:48:24.874Z,23.30
2019-02-24T14:50:54.456Z,22.00
2019-02-24T14:53:23.551Z,20.00
2019-02-24T14:55:52.692Z,19.60
2019-02-24T14:58:21.951Z,19.30
2019-02-24T15:00:51.161Z,18.30
2019-02-24T15:03:20.286Z,17.10
2019-02-24T15:05:49.598Z,18.90
2019-02-24T15:08:18.799Z,20.50
2019-02-24T15:10:57.415Z,21.50
2019-02-24T15:13:26.593Z,23.70
2019-02-24T15:15:55.909Z,24.20
2019-02-24T15:18:25.041Z,23.10
2019-02-24T15:20:54.553Z,24.30
2019-02-24T15:23:23.696Z,27.20
2019-02-24T15:25:52.839Z,29.10
2019-02-24T15:28:22.051Z,31.60
2019-02-24T15:30:54.107Z,32.30
2019-02-24T15:33:23.367Z,33.60
2019-02-24T15:35:52.515Z,32.00
2019-02-24T15:38:21.792Z,27.70
2019-02-24T15:40:51.307Z,25.80
2019-02-24T15:43:20.476Z,24.40
2019-02-24T15:45:50.123Z,22.40
2019-02-24T15:48:19.315Z,21.10
2019-02-24T15:50:48.470Z,21.60
2019-02-24T15:53:17.730Z,21.60
2019-02-24T15:55:46.943Z,21.70
2019-02-24T15:58:17.813Z,21.70
2019-02-24T16:00:47.190Z,22.60
2019-02-24T16:03:19.891Z,22.30
2019-02-24T16:05:49.059Z,25.10
2019-02-24T16:08:18.305Z,27.60
2019-02-24T16:10:47.545Z,29.30
2019-02-24T16:13:17.332Z,29.80
2019-02-24T16:15:47.117Z,31.40
2019-02-24T16:18:16.376Z,32.70
2019-02-24T16:20:46.116Z,33.00
2019-02-24T16:23:15.671Z,34.30
2019-02-24T16:25:45.015Z,35.70
2019-02-24T16:28:14.244Z,36.10
2019-02-24T16:30:43.487Z,35.10
2019-02-24T16:33:12.666Z,34.30
2019-02-24T16:35:42.167Z,33.80
2019-02-24T16:38:11.395Z,33.60
2019-02-24T16:40:40.659Z,33.50
2019-02-24T16:43:09.912Z,34.80
2019-02-24T16:45:39.538Z,36.90
2019-02-24T16:48:09.311Z,38.90
2019-02-24T16:50:38.493Z,41.50
2019-02-24T16:53:09.737Z,42.60
2019-02-24T16:55:38.919Z,44.00
2019-02-24T16:58:10.239Z,44.10
2019-02-24T17:00:39.869Z,45.30
2019-02-24T17:03:09.112Z,45.30
2019-02-24T17:05:39.165Z,46.10
2019-02-24T17:08:08.307Z,46.80
2019-02-24T17:10:37.635Z,47.20
2019-02-24T17:13:06.826Z,48.80
2019-02-24T17:15:36.107Z,49.00
2019-02-24T17:18:05.543Z,47.40
2019-02-24T17:21:03.295Z,47.20
2019-02-24T17:23:33.083Z,47.30
2019-02-24T17:26:02.238Z,46.80
2019-02-24T17:28:31.508Z,46.50
2019-02-24T17:31:01.408Z,48.30
2019-02-24T17:33:32.944Z,48.20
2019-02-24T17:36:02.176Z,48.40
2019-02-24T17:38:36.348Z,47.40
2019-02-24T17:41:06.135Z,46.40
2019-02-24T17:43:35.434Z,46.90
2019-02-24T17:46:04.611Z,47.20
2019-02-24T17:48:34.245Z,47.40
2019-02-24T17:51:03.574Z,48.10
2019-02-24T17:53:32.743Z,47.70
2019-02-24T17:56:02.240Z,48.20
2019-02-24T17:58:36.437Z,47.30
2019-02-24T18:01:12.654Z,47.00
2019-02-24T18:03:42.239Z,46.80
2019-02-24T18:06:11.492Z,46.70
2019-02-24T18:08:40.724Z,49.00
2019-02-24T18:11:10.163Z,48.70
2019-02-24T18:13:39.763Z,49.40
2019-02-24T18:16:09.380Z,49.40
2019-02-24T18:18:43.122Z,49.00
2019-02-24T18:21:12.705Z,49.90
2019-02-24T18:23:42.414Z,51.30
2019-02-24T18:26:11.920Z,54.70
2019-02-24T18:28:41.515Z,53.50
2019-02-24T18:31:11.104Z,53.20
2019-02-24T18:33:48.174Z,52.90
2019-02-24T18:36:12.312Z,54.50
2019-02-24T18:38:44.610Z,56.90
2019-02-24T18:41:14.516Z,57.30
2019-02-24T18:43:43.739Z,57.50
2019-02-24T18:46:13.043Z,57.30
2019-02-24T18:48:42.771Z,58.10
2019-02-24T18:51:12.045Z,58.80
2019-02-24T18:53:41.248Z,59.80
2019-02-24T18:56:10.581Z,59.90
2019-02-24T18:58:39.805Z,59.60
2019-02-24T19:01:12.065Z,60.30
2019-02-24T19:03:41.802Z,61.50
2019-02-24T19:06:11.206Z,60.20
2019-02-24T19:08:40.496Z,60.10
2019-02-24T19:11:10.373Z,60.10
2019-02-24T19:13:39.853Z,60.60
2019-02-24T19:16:09.136Z,61.40
2019-02-24T19:18:38.419Z,61.80
2019-02-24T19:21:07.714Z,62.20
2019-02-24T19:23:37.057Z,61.60
2019-02-24T19:26:06.473Z,62.40
2019-02-24T19:28:35.811Z,60.40
2019-02-24T19:31:05.180Z,58.40
2019-02-24T19:33:34.662Z,59.20
2019-02-24T19:36:03.965Z,58.60
2019-02-24T19:38:33.281Z,57.70
2019-02-24T19:41:07.274Z,57.30
2019-02-24T19:43:36.513Z,59.70
2019-02-24T19:46:05.833Z,62.90
2019-02-24T19:48:41.786Z,65.20
2019-02-24T19:51:06.791Z,66.00
2019-02-24T19:53:36.156Z,66.30
2019-02-24T19:56:05.319Z,66.00
2019-02-24T19:58:34.735Z,65.80
2019-02-24T20:01:04.123Z,65.60
2019-02-24T20:03:33.407Z,64.70
2019-02-24T20:06:02.647Z,63.90
2019-02-24T20:08:32.311Z,64.40
2019-02-24T20:11:02.477Z,64.40
2019-02-24T20:13:32.064Z,63.60
2019-02-24T20:16:01.599Z,63.30
2019-02-24T20:18:30.798Z,64.20
2019-02-24T20:21:00.944Z,63.60
2019-02-24T20:23:30.439Z,62.90
2019-02-24T20:25:59.631Z,63.70
2019-02-24T20:28:29.134Z,62.50
2019-02-24T20:31:00.554Z,62.00
2019-02-24T20:33:30.722Z,62.70
2019-02-24T20:36:00.699Z,63.20
2019-02-24T20:38:29.922Z,62.90
2019-02-24T20:41:00.347Z,62.40
2019-02-24T20:43:31.105Z,63.50
2019-02-24T20:46:00.667Z,60.00
2019-02-24T20:48:36.122Z,61.40
2019-02-24T20:51:05.331Z,61.40
2019-02-24T20:53:35.549Z,61.60
2019-02-24T20:56:05.357Z,61.40
2019-02-24T20:58:34.629Z,61.70
2019-02-24T21:01:05.427Z,62.30
2019-02-24T21:03:35.039Z,60.90
2019-02-24T21:06:04.918Z,61.70
2019-02-24T21:08:34.445Z,62.20
2019-02-24T21:11:04.032Z,63.10
2019-02-24T21:13:34.472Z,64.40
2019-02-24T21:16:03.701Z,64.10
2019-02-24T21:18:43.507Z,65.80
2019-02-24T21:21:12.995Z,65.10
2019-02-24T21:23:46.272Z,65.90
2019-02-24T21:26:15.552Z,66.70
2019-02-24T21:28:45.197Z,67.40
2019-02-24T21:31:14.684Z,68.50
2019-02-24T21:33:43.944Z,68.70
2019-02-24T21:36:13.268Z,68.90
2019-02-24T21:38:42.447Z,68.70
2019-02-24T21:41:13.143Z,68.20
2019-02-24T21:43:42.327Z,67.80
2019-02-24T21:46:11.498Z,67.70
2019-02-24T21:48:41.569Z,67.20
2019-02-24T21:51:10.872Z,67.40
2019-02-24T21:53:40.322Z,68.30
2019-02-24T21:56:09.681Z,68.20
2019-02-24T21:58:39.124Z,67.20
2019-02-24T22:01:08.398Z,68.10
2019-02-24T22:03:38.792Z,69.20
2019-02-24T22:06:08.889Z,69.40
2019-02-24T22:08:38.671Z,69.10
2019-02-24T22:11:09.190Z,69.30
2019-02-24T22:13:38.492Z,69.70
2019-02-24T22:16:08.081Z,69.80
2019-02-24T22:18:38.233Z,68.70
2019-02-24T22:21:08.230Z,68.70
2019-02-24T22:23:37.642Z,66.20
2019-02-24T22:26:07.008Z,65.60
2019-02-24T22:28:36.343Z,65.30
2019-02-24T22:31:05.667Z,64.80
2019-02-24T22:33:35.898Z,64.60
2019-02-24T22:36:05.753Z,64.50
2019-02-24T22:38:36.269Z,64.60
2019-02-24T22:41:05.725Z,65.10
2019-02-24T22:43:36.954Z,66.00
2019-02-24T22:46:06.138Z,66.00
2019-02-24T22:48:35.663Z,66.00
2019-02-24T22:51:05.646Z,66.20
2019-02-24T22:53:34.787Z,66.60
2019-02-24T22:56:04.921Z,66.60
2019-02-24T22:58:34.187Z,67.30
2019-02-24T23:01:14.187Z,68.00
2019-02-24T23:03:45.464Z,68.10
2019-02-24T23:06:14.903Z,69.40
2019-02-24T23:08:46.071Z,70.70
2019-02-24T23:11:15.259Z,72.10
2019-02-24T23:13:45.730Z,72.40
2019-02-24T23:16:16.477Z,71.90
2019-02-24T23:18:47.096Z,71.70
2019-02-24T23:21:16.444Z,71.70
2019-02-24T23:23:45.742Z,72.80
2019-02-24T23:26:15.207Z,73.50
2019-02-24T23:28:44.459Z,73.70
2019-02-24T23:31:13.715Z,74.40
2019-02-24T23:33:43.503Z,75.00
2019-02-24T23:36:12.661Z,75.70
2019-02-24T23:38:42.476Z,76.10
2019-02-24T23:41:11.987Z,77.20
2019-02-24T23:43:41.198Z,77.70
2019-02-24T23:46:10.388Z,78.40
2019-02-24T23:48:40.989Z,79.30
2019-02-24T23:51:10.134Z,79.60
2019-02-24T23:53:39.770Z,79.80
2019-02-24T23:56:09.191Z,78.80
2019-02-24T23:58:38.428Z,77.80
